Time;durP1;ratioP1;P1;durP2;ratioP2;P2;SDS_P1;SDS_P2;PMS_P1;PMS_P2;Temp;Humidity;BMP_temperature;BMP_pressure;BME280_temperature;BME280_humidity;BME280_pressure;Samples;Min_cycle;Max_cycle;Signal;HPM_P1;HPM_P2
2022/08/22 00:01:14;;;;;;;18.38;5.85;;;;;;;15.93;100.00;101447.34;5037156;28;20160;-68
2022/08/22 00:04:02;;;;;;;20.65;6.18;;;;;;;15.96;100.00;101447.31;5038841;28;20467;-68
2022/08/22 00:06:40;;;;;;;19.83;6.32;;;;;;;15.90;100.00;101450.03;5041533;28;20033;-68
2022/08/22 00:09:28;;;;;;;18.00;5.75;;;;;;;15.97;100.00;101448.19;5037514;28;20025;-67
2022/08/22 00:12:07;;;;;;;18.88;5.50;;;;;;;16.00;100.00;101451.72;5041752;28;20392;-68
2022/08/22 00:14:49;;;;;;;18.95;6.15;;;;;;;15.98;100.00;101449.97;5037093;28;20112;-68
2022/08/22 00:17:44;;;;;;;16.48;5.65;;;;;;;15.93;100.00;101455.34;5040321;28;20025;-64
2022/08/22 00:20:25;;;;;;;18.88;6.03;;;;;;;15.96;100.00;101459.75;5038434;28;20433;-62
2022/08/22 00:22:57;;;;;;;19.00;5.90;;;;;;;15.94;100.00;101442.88;5042309;28;20040;-65
2022/08/22 00:25:31;;;;;;;18.77;6.20;;;;;;;15.94;100.00;101454.44;5043361;28;20381;-64
2022/08/22 00:28:03;;;;;;;17.15;5.85;;;;;;;15.92;100.00;101444.69;5041296;28;20108;-63
2022/08/22 00:30:36;;;;;;;18.63;6.00;;;;;;;15.92;100.00;101450.91;5043989;28;20032;-64
2022/08/22 00:33:12;;;;;;;19.08;6.18;;;;;;;15.91;100.00;101446.47;5037040;28;20052;-64
2022/08/22 00:35:43;;;;;;;18.50;6.30;;;;;;;15.89;100.00;101448.25;5037802;28;20107;-66
2022/08/22 00:38:20;;;;;;;18.67;6.20;;;;;;;15.88;100.00;101446.47;5043947;28;20024;-66
2022/08/22 00:41:13;;;;;;;18.58;6.15;;;;;;;15.88;100.00;101450.94;5041941;28;20028;-66
2022/08/22 00:43:55;;;;;;;21.27;6.50;;;;;;;15.88;100.00;101450.94;5038261;28;20026;-65
2022/08/22 00:46:27;;;;;;;19.58;6.18;;;;;;;15.82;100.00;101451.88;5041819;28;20381;-63
2022/08/22 00:49:28;;;;;;;18.30;6.60;;;;;;;15.82;100.00;101451.88;5042976;28;20473;-62
2022/08/22 00:52:02;;;;;;;18.45;6.32;;;;;;;15.79;100.00;101449.25;5042159;28;20466;-64
2022/08/22 00:54:30;;;;;;;21.25;6.88;;;;;;;15.77;100.00;101457.22;5041437;28;20033;-62
2022/08/22 00:57:17;;;;;;;19.60;6.47;;;;;;;15.78;100.00;101455.41;5043322;28;20164;-64
2022/08/22 01:00:03;;;;;;;19.38;6.63;;;;;;;15.79;100.00;101452.78;5039118;28;20029;-64
2022/08/22 01:02:55;;;;;;;19.25;6.78;;;;;;;15.85;100.00;101459.84;5041155;28;20040;-65
2022/08/22 01:05:28;;;;;;;18.02;6.15;;;;;;;15.82;100.00;101457.19;5040624;28;20463;-63
2022/08/22 01:08:23;;;;;;;18.05;6.13;;;;;;;15.79;100.00;101458.09;5041519;28;20027;-66
2022/08/22 01:11:21;;;;;;;19.40;6.03;;;;;;;15.77;100.00;101450.97;5040609;28;20028;-64
2022/08/22 01:13:58;;;;;;;18.40;5.85;;;;;;;15.72;100.00;101448.34;5017812;28;20045;-61
2022/08/22 01:16:53;;;;;;;18.75;5.78;;;;;;;15.76;100.00;101449.22;5019405;28;20053;-67
2022/08/22 01:19:47;;;;;;;18.60;5.93;;;;;;;15.68;100.00;101442.19;5019846;28;20046;-66
2022/08/22 01:22:36;;;;;;;18.48;6.13;;;;;;;15.66;100.00;101443.94;5019147;28;20030;-65
2022/08/22 01:25:55;;;;;;;18.20;6.20;;;;;;;15.61;100.00;101440.44;5018289;28;20523;-66
2022/08/22 01:28:29;;;;;;;19.23;6.00;;;;;;;15.56;100.00;101447.56;4925029;29;20468;-65
2022/08/22 01:31:22;;;;;;;17.40;5.85;;;;;;;15.59;100.00;101446.69;4922517;29;20122;-65
2022/08/22 01:34:28;;;;;;;19.63;6.72;;;;;;;15.55;100.00;101447.59;4927358;29;20179;-65
2022/08/22 01:37:26;;;;;;;18.65;6.40;;;;;;;15.52;100.00;101445.81;4929824;29;20559;-65
2022/08/22 01:40:19;;;;;;;19.10;6.30;;;;;;;15.54;100.00;101446.72;4925870;29;20519;-65
2022/08/22 01:43:03;;;;;;;;;;;;;;;15.62;100.00;101439.53;4931471;29;20460;-66
2022/08/22 01:45:32;;;;;;;18.35;6.07;;;;;;;15.48;100.00;101438.78;4927837;29;19921;-65
2022/08/22 01:48:11;;;;;;;20.10;6.57;;;;;;;15.46;100.00;101436.09;4925023;29;20042;-65
2022/08/22 01:50:51;;;;;;;18.70;6.43;;;;;;;15.56;100.00;101439.56;4942238;29;20080;-65
2022/08/22 01:53:36;;;;;;;18.10;6.28;;;;;;;15.59;100.00;101442.22;4945131;29;20035;-65
2022/08/22 01:56:11;;;;;;;18.80;5.95;;;;;;;15.58;100.00;101440.47;4947393;29;20180;-64
2022/08/22 01:58:54;;;;;;;18.17;6.20;;;;;;;15.52;100.00;101440.50;4947158;29;20467;-65
2022/08/22 02:01:41;;;;;;;19.20;6.32;;;;;;;15.52;100.00;101443.16;4955802;28;20030;-65
2022/08/22 02:04:27;;;;;;;18.90;6.30;;;;;;;15.56;100.00;101438.72;5039991;28;20055;-64
2022/08/22 02:07:06;;;;;;;18.33;6.30;;;;;;;15.56;100.00;101436.91;5044547;28;20472;-65
2022/08/22 02:09:41;;;;;;;18.05;6.78;;;;;;;15.57;100.00;101433.38;5039362;28;20087;-65
2022/08/22 02:12:09;;;;;;;19.55;6.90;;;;;;;15.51;100.00;101441.41;5039916;28;20104;-65
2022/08/22 02:14:48;;;;;;;19.48;7.03;;;;;;;15.47;100.00;101437.00;5046500;28;20369;-66
2022/08/22 02:17:23;;;;;;;20.27;7.65;;;;;;;15.44;100.00;101434.34;5041207;28;20033;-65
2022/08/22 02:20:04;;;;;;;20.48;7.55;;;;;;;15.50;100.00;101437.84;5044455;28;20380;-65
2022/08/22 02:23:00;;;;;;;20.60;7.90;;;;;;;15.60;100.00;101432.47;5045917;28;20021;-65
2022/08/22 02:25:33;;;;;;;20.63;8.07;;;;;;;15.63;100.00;101435.09;5044472;28;20080;-65
2022/08/22 02:28:12;;;;;;;20.92;7.60;;;;;;;15.65;100.00;101431.53;5043204;28;20060;-60
2022/08/22 02:30:59;;;;;;;20.23;7.50;;;;;;;15.63;100.00;101432.44;5039813;28;20499;-64
2022/08/22 02:33:41;;;;;;;19.77;7.43;;;;;;;15.72;100.00;101432.34;5043746;28;20025;-65
2022/08/22 02:36:24;;;;;;;20.15;7.85;;;;;;;15.72;100.00;101420.81;5039697;28;20116;-64
2022/08/22 02:39:18;;;;;;;20.73;7.75;;;;;;;15.77;100.00;101427.00;5042796;28;20024;-64
2022/08/22 02:41:51;;;;;;;20.67;7.80;;;;;;;15.73;100.00;101419.91;5040977;28;20116;-63
2022/08/22 02:44:27;;;;;;;20.73;8.50;;;;;;;15.72;100.00;101423.50;5044967;28;20061;-65
2022/08/22 02:47:05;;;;;;;20.88;7.78;;;;;;;15.64;100.00;101424.44;5043260;28;20037;-66
2022/08/22 02:49:58;;;;;;;20.13;7.63;;;;;;;15.64;100.00;101427.09;5042420;28;20050;-65
2022/08/22 02:52:32;;;;;;;20.10;8.05;;;;;;;15.61;100.00;101431.53;5044000;28;20104;-68
2022/08/22 02:55:18;;;;;;;20.40;8.05;;;;;;;15.58;100.00;101432.47;5042783;28;20539;-65
2022/08/22 02:57:55;;;;;;;21.15;8.98;;;;;;;15.49;100.00;101429.84;5040400;28;20029;-60
2022/08/22 03:00:20;;;;;;;20.80;8.68;;;;;;;15.44;100.00;101421.03;5043949;28;20086;-66
2022/08/22 03:02:58;;;;;;;19.88;8.35;;;;;;;15.45;100.00;101425.44;5043557;28;20435;-65
2022/08/22 03:05:40;;;;;;;23.10;9.50;;;;;;;15.45;100.00;101420.09;5043307;28;20036;-65
2022/08/22 03:08:17;;;;;;;22.63;9.05;;;;;;;15.48;100.00;101425.44;5038357;28;20040;-64
2022/08/22 03:10:55;;;;;;;22.40;9.48;;;;;;;15.45;100.00;101430.75;5040226;28;20025;-65
2022/08/22 03:13:42;;;;;;;21.95;9.45;;;;;;;15.38;100.00;101431.69;5043768;28;20033;-65
2022/08/22 03:16:46;;;;;;;21.38;9.52;;;;;;;15.38;100.00;101431.69;5038516;28;20428;-65
2022/08/22 03:19:45;;;;;;;21.80;9.73;;;;;;;15.39;100.00;101420.16;5017745;28;20112;-64
2022/08/22 03:22:33;;;;;;;23.17;9.55;;;;;;;15.36;100.00;101418.41;5017197;28;20041;-63
2022/08/22 03:25:45;;;;;;;21.52;9.80;;;;;;;15.36;100.00;101407.75;5020081;28;20539;-64
2022/08/22 03:28:17;;;;;;;21.17;8.52;;;;;;;15.29;100.00;101401.59;4931228;29;20058;-63
2022/08/22 03:30:55;;;;;;;23.33;9.13;;;;;;;15.18;100.00;101407.88;4933992;29;20069;-60
2022/08/22 03:33:23;;;;;;;22.15;8.52;;;;;;;15.09;100.00;101407.03;4933840;29;20051;-61
2022/08/22 03:35:58;;;;;;;20.65;8.63;;;;;;;15.01;100.00;101414.16;4933748;29;20439;-64
2022/08/22 03:38:46;;;;;;;21.60;8.55;;;;;;;14.97;100.00;101400.00;4918106;29;20036;-61
2022/08/22 03:41:11;;;;;;;22.30;9.15;;;;;;;14.94;100.00;101399.09;4933896;29;20083;-60
2022/08/22 03:44:04;;;;;;;21.02;8.88;;;;;;;14.88;100.00;101399.13;4933625;29;20040;-62
2022/08/22 03:47:07;;;;;;;20.10;8.32;;;;;;;14.86;100.00;101393.81;4933435;29;20083;-64
2022/08/22 03:49:35;;;;;;;20.75;8.95;;;;;;;14.91;100.00;101397.38;4933647;29;20488;-64
2022/08/22 03:52:31;;;;;;;21.23;9.20;;;;;;;14.88;100.00;101392.06;4933755;29;20040;-65
2022/08/22 03:55:15;;;;;;;22.05;9.80;;;;;;;14.76;100.00;101389.44;4932849;29;20468;-63
2022/08/22 03:57:57;;;;;;;21.67;8.70;;;;;;;14.65;100.00;101392.16;4945296;29;20036;-65
2022/08/22 04:00:35;;;;;;;20.92;8.90;;;;;;;14.56;100.00;101393.03;4943683;29;20095;-62
2022/08/22 04:03:38;;;;;;;21.00;9.10;;;;;;;14.50;100.00;101397.47;4941887;29;20093;-64
2022/08/22 04:06:28;;;;;;;21.75;9.02;;;;;;;14.37;100.00;101393.97;5037152;28;20040;-62
2022/08/22 04:09:41;;;;;;;19.70;8.60;;;;;;;14.34;100.00;101389.53;5041670;28;20469;-65
2022/08/22 04:12:38;;;;;;;19.58;8.43;;;;;;;14.31;100.00;101397.53;5018945;28;20409;-65
2022/08/22 04:15:34;;;;;;;21.30;8.55;;;;;;;14.26;100.00;101394.00;5015206;28;20497;-65
2022/08/22 04:18:33;;;;;;;21.10;8.98;;;;;;;14.22;100.00;101398.44;5021921;28;20038;-64
2022/08/22 04:21:19;;;;;;;21.13;8.68;;;;;;;14.20;100.00;101400.22;5005139;28;20396;-64
2022/08/22 04:23:56;;;;;;;21.92;8.90;;;;;;;14.19;100.00;101402.88;5017222;28;20251;-63
2022/08/22 04:26:40;;;;;;;19.85;8.80;;;;;;;14.20;100.00;101407.28;5020231;28;20068;-64
2022/08/22 04:29:14;;;;;;;22.83;9.00;;;;;;;14.27;100.00;101409.97;5015130;28;20536;-65
2022/08/22 04:31:53;;;;;;;21.15;9.20;;;;;;;14.32;100.00;101414.38;5015979;28;20030;-63
2022/08/22 04:34:30;;;;;;;20.73;8.90;;;;;;;14.39;100.00;101410.81;5020774;28;20120;-64
2022/08/22 04:37:05;;;;;;;22.27;9.10;;;;;;;14.47;100.00;101422.31;5021311;28;20092;-67
2022/08/22 04:39:42;;;;;;;20.63;8.95;;;;;;;14.49;100.00;101407.25;5019046;28;20022;-66
2022/08/22 04:42:17;;;;;;;22.88;9.18;;;;;;;14.54;100.00;101413.44;5015361;28;20148;-63
2022/08/22 04:45:17;;;;;;;20.30;9.43;;;;;;;14.57;100.00;101409.88;5015958;28;20024;-62
2022/08/22 04:47:59;;;;;;;22.85;9.85;;;;;;;14.58;100.00;101407.22;5022318;28;20040;-66
2022/08/22 04:50:35;;;;;;;21.10;9.05;;;;;;;14.64;100.00;101414.31;5041871;28;20029;-61
2022/08/22 04:53:17;;;;;;;23.88;9.30;;;;;;;14.70;100.00;101416.09;5043736;28;20017;-64
2022/08/22 04:55:54;;;;;;;21.87;9.20;;;;;;;14.71;100.00;101418.72;5038196;28;20034;-62
2022/08/22 04:58:31;;;;;;;21.98;9.15;;;;;;;14.76;100.00;101421.38;5042432;28;20063;-61
2022/08/22 05:01:09;;;;;;;21.17;9.98;;;;;;;14.82;100.00;101426.66;5043216;28;20032;-61
2022/08/22 05:03:39;;;;;;;24.45;9.98;;;;;;;14.90;100.00;101429.31;5036641;28;20030;-65
2022/08/22 05:06:08;;;;;;;22.92;10.65;;;;;;;14.85;100.00;101421.31;5036681;28;20029;-62
2022/08/22 05:08:39;;;;;;;22.63;10.23;;;;;;;14.84;100.00;101421.34;5036196;28;20029;-60
2022/08/22 05:11:08;;;;;;;23.02;10.75;;;;;;;14.93;100.00;101429.28;5039296;28;20120;-63
2022/08/22 05:13:46;;;;;;;21.73;10.68;;;;;;;14.96;100.00;101424.84;5047992;28;20020;-65
2022/08/22 05:16:18;;;;;;;21.38;9.80;;;;;;;15.01;100.00;101423.94;5041244;28;20029;-61
2022/08/22 05:18:50;;;;;;;;;;;;;;;15.13;100.00;101421.19;5047401;28;20390;-64
2022/08/22 05:21:19;;;;;;;22.05;10.48;;;;;;;15.14;100.00;101428.28;5044967;28;20284;-65
2022/08/22 05:23:53;;;;;;;21.45;10.18;;;;;;;15.21;100.00;101434.47;5046708;28;20052;-63
2022/08/22 05:26:20;;;;;;;22.48;10.38;;;;;;;15.26;100.00;101422.91;5045327;28;20033;-62
2022/08/22 05:28:49;;;;;;;21.60;10.70;;;;;;;15.29;100.00;101425.56;5046377;28;20287;-64
2022/08/22 05:31:20;;;;;;;22.80;11.38;;;;;;;15.31;100.00;101434.41;5045038;28;20060;-64
2022/08/22 05:33:50;;;;;;;22.20;11.00;;;;;;;15.38;100.00;101432.59;5041036;28;20314;-73
2022/08/22 05:36:21;;;;;;;22.98;11.82;;;;;;;15.43;100.00;101443.22;5033314;28;20112;-72
2022/08/22 05:39:00;;;;;;;24.27;11.73;;;;;;;15.51;100.00;101444.06;5033114;28;20533;-69
2022/08/22 05:41:31;;;;;;;25.70;12.95;;;;;;;15.51;100.00;101444.94;5034401;28;20461;-75
2022/08/22 05:43:58;;;;;;;24.55;12.82;;;;;;;15.57;100.00;101438.69;5037475;28;20785;-76
2022/08/22 05:46:45;;;;;;;25.02;13.32;;;;;;;15.64;100.00;101445.75;5034591;28;20040;-80
2022/08/22 05:49:21;;;;;;;23.30;12.98;;;;;;;15.69;100.00;101443.03;5037258;28;20042;-75
2022/08/22 05:52:05;;;;;;;26.17;14.40;;;;;;;15.75;100.00;101443.00;5034953;28;20053;-75
2022/08/22 05:54:37;;;;;;;26.23;14.02;;;;;;;15.76;100.00;101443.91;5038646;28;20094;-78
2022/08/22 05:57:24;;;;;;;24.42;14.05;;;;;;;15.84;100.00;101442.06;5036244;28;20026;-74
2022/08/22 05:59:57;;;;;;;24.40;13.70;;;;;;;15.86;100.00;101434.97;5038951;28;20041;-79
2022/08/22 06:02:52;;;;;;;26.13;14.23;;;;;;;15.94;100.00;101433.09;5034757;28;20527;-74
2022/08/22 06:05:24;;;;;;;26.05;15.80;;;;;;;15.92;100.00;101437.56;4995056;28;20050;-72
2022/08/22 06:07:53;;;;;;;27.00;15.63;;;;;;;15.98;100.00;101432.19;4994892;28;20438;-71
2022/08/22 06:10:28;;;;;;;24.75;15.23;;;;;;;16.10;100.00;101438.31;4992756;28;20034;-72
2022/08/22 06:13:06;;;;;;;24.33;15.68;;;;;;;16.15;100.00;101436.47;4994231;28;20035;-70
2022/08/22 06:15:31;;;;;;;26.33;16.73;;;;;;;16.20;100.00;101446.19;4993906;28;20442;-59
2022/08/22 06:18:00;;;;;;;26.98;16.70;;;;;;;16.29;100.00;101444.34;4992429;28;20092;-59
2022/08/22 06:20:32;;;;;;;26.55;16.15;;;;;;;16.39;100.00;101446.91;4993066;28;20032;-59
2022/08/22 06:23:01;;;;;;;26.75;16.60;;;;;;;16.54;100.00;101452.97;4994132;28;20041;-59
2022/08/22 06:25:36;;;;;;;25.98;16.95;;;;;;;16.63;100.00;101449.31;4991774;28;20129;-61
2022/08/22 06:28:19;;;;;;;28.30;17.20;;;;;;;16.69;100.00;101447.47;4992814;28;20026;-61
2022/08/22 06:30:47;;;;;;;26.90;17.05;;;;;;;16.77;100.00;101449.16;4991547;28;20029;-59
2022/08/22 06:33:18;;;;;;;26.60;17.38;;;;;;;16.84;100.00;101450.88;4990383;28;20458;-60
2022/08/22 06:38:58;;;;;;;26.98;17.02;;;;;;;17.07;100.00;101454.16;4993534;28;20363;-59
2022/08/22 06:41:26;;;;;;;27.63;17.55;;;;;;;17.14;100.00;101443.38;4981730;28;20050;-79
2022/08/22 06:43:53;;;;;;;28.17;18.23;;;;;;;17.24;100.00;101447.69;5034057;28;20021;-79
2022/08/22 06:46:21;;;;;;;25.95;17.38;;;;;;;17.32;100.00;101450.28;5034597;28;20029;-76
2022/08/22 06:48:48;;;;;;;27.20;17.10;;;;;;;17.38;100.00;101453.75;5034737;28;20037;-74
2022/08/22 06:51:16;;;;;;;30.00;18.05;;;;;;;17.41;100.00;101461.69;5031647;28;20037;-71
2022/08/22 06:53:48;;;;;;;28.55;17.17;;;;;;;17.56;100.00;101462.38;5036870;28;20024;-67
2022/08/22 06:56:24;;;;;;;27.60;16.40;;;;;;;17.69;100.00;101464.00;5034659;28;20030;-74
2022/08/22 06:58:53;;;;;;;27.17;17.00;;;;;;;17.81;100.00;101486.97;5032623;28;20027;-71
2022/08/22 07:01:36;;;;;;;26.23;17.30;;;;;;;17.99;100.00;101476.94;5034884;28;20021;-76
2022/08/22 07:04:06;;;;;;;25.33;16.52;;;;;;;18.10;100.00;101475.84;5039449;28;20025;-71
2022/08/22 07:06:35;;;;;;;28.67;17.10;;;;;;;18.16;100.00;101476.63;5039227;28;20033;-75
2022/08/22 07:09:02;;;;;;;27.10;17.05;;;;;;;18.28;100.00;101474.63;5037092;28;20025;-70
2022/08/22 07:11:31;;;;;;;26.77;16.27;;;;;;;18.36;100.00;101482.50;5034621;28;20423;-73
2022/08/22 07:14:01;;;;;;;27.92;16.70;;;;;;;18.44;100.00;101477.03;5039561;28;20037;-77
2022/08/22 07:16:29;;;;;;;26.38;16.70;;;;;;;18.40;100.00;101475.31;5039839;28;20022;-74
2022/08/22 07:18:55;;;;;;;25.55;16.38;;;;;;;18.44;100.00;101475.22;5039012;28;20091;-70
2022/08/22 07:21:30;;;;;;;26.70;15.77;;;;;;;18.53;100.00;101475.97;5035368;28;20018;-74
2022/08/22 07:24:00;;;;;;;27.27;16.00;;;;;;;18.58;100.00;101482.13;5037353;28;20033;-77
2022/08/22 07:26:32;;;;;;;28.13;16.27;;;;;;;18.72;100.00;101476.50;5031998;28;20064;-74
2022/08/22 07:29:15;;;;;;;;;;;;;;;18.97;100.00;101479.59;5037994;28;20160;-75
2022/08/22 07:31:48;;;;;;;27.88;16.52;;;;;;;19.03;100.00;101474.09;5035143;28;20379;-73
2022/08/22 07:34:54;;;;;;;27.73;16.83;;;;;;;19.25;100.00;101471.88;5029351;28;20059;-62
2022/08/22 07:37:49;;;;;;;27.02;17.25;;;;;;;19.50;100.00;101460.59;5031483;28;20029;-62
2022/08/22 07:40:36;;;;;;;27.10;16.25;;;;;;;19.77;100.00;101466.22;5031219;28;20021;-65
2022/08/22 07:43:22;;;;;;;26.48;16.08;;;;;;;19.81;100.00;101470.63;5033074;28;20072;-62
2022/08/22 07:45:52;;;;;;;27.52;16.73;;;;;;;20.07;100.00;101459.25;5032080;28;20479;-66
2022/08/22 07:48:40;;;;;;;27.58;15.98;;;;;;;20.28;100.00;101457.78;5036139;28;20033;-63
2022/08/22 07:51:14;;;;;;;26.90;15.18;;;;;;;20.43;100.00;101459.19;5029672;28;20024;-63
2022/08/22 07:53:49;;;;;;;24.55;14.80;;;;;;;20.61;100.00;101465.88;5034662;28;20041;-66
2022/08/22 07:56:22;;;;;;;26.17;14.85;;;;;;;20.69;100.00;101465.66;5029474;28;20080;-65
2022/08/22 07:58:54;;;;;;;27.00;15.35;;;;;;;20.57;100.00;101466.00;5033277;28;20029;-66
2022/08/22 08:01:21;;;;;;;27.13;15.23;;;;;;;20.57;100.00;101457.94;5031945;28;20022;-65
2022/08/22 08:04:00;;;;;;;26.13;14.90;;;;;;;20.73;100.00;101457.47;5040674;28;20021;-66
2022/08/22 08:06:27;;;;;;;24.90;15.30;;;;;;;20.84;100.00;101454.50;5037554;28;20021;-65
2022/08/22 08:08:54;;;;;;;24.48;14.57;;;;;;;21.20;100.00;101450.75;5044640;28;20059;-64
2022/08/22 08:11:22;;;;;;;27.42;15.30;;;;;;;21.70;100.00;101447.44;5039637;28;20505;-66
2022/08/22 08:13:58;;;;;;;25.33;14.73;;;;;;;22.53;100.00;101444.63;5043976;28;20060;-65
2022/08/22 08:16:27;;;;;;;24.45;14.90;;;;;;;22.98;100.00;101443.84;5037543;28;20033;-66
2022/08/22 08:18:55;;;;;;;25.65;14.80;;;;;;;23.03;100.00;101440.09;5037209;28;20045;-66
2022/08/22 08:21:24;;;;;;;26.60;15.65;;;;;;;22.87;100.00;101445.19;5037105;28;20032;-66
2022/08/22 08:23:51;;;;;;;25.40;14.90;;;;;;;22.87;100.00;101437.97;5044276;28;20385;-65
2022/08/22 08:26:23;;;;;;;25.02;13.82;;;;;;;23.27;100.00;101433.78;5040392;28;20064;-67
2022/08/22 08:28:52;;;;;;;25.60;13.43;;;;;;;23.93;100.00;101435.63;5043994;28;20033;-67
2022/08/22 08:31:34;;;;;;;24.33;12.90;;;;;;;24.12;100.00;101440.25;5041126;28;20490;-67
2022/08/22 08:34:10;;;;;;;24.88;12.75;;;;;;;23.96;100.00;101440.88;5038329;28;20491;-67
2022/08/22 08:36:49;;;;;;;24.02;13.30;;;;;;;24.22;100.00;101441.59;5042828;28;20025;-67
2022/08/22 08:39:23;;;;;;;23.58;12.13;;;;;;;24.64;100.00;101448.78;5043281;28;20534;-67
2022/08/22 08:42:04;;;;;;;25.92;10.68;;;;;;;24.86;96.71;101447.78;5041316;28;20093;-68
2022/08/22 08:45:07;;;;;;;23.42;11.15;;;;;;;24.96;94.27;101438.31;5031004;28;20415;-59
2022/08/22 08:47:40;;;;;;;22.92;10.00;;;;;;;24.78;93.13;101441.84;5034535;28;20034;-59
2022/08/22 08:50:34;;;;;;;21.23;9.70;;;;;;;24.66;94.72;101440.59;5035002;28;20053;-60
2022/08/22 08:53:28;;;;;;;22.23;9.38;;;;;;;24.45;93.94;101442.38;5034791;28;20597;-60
2022/08/22 08:56:01;;;;;;;22.25;8.80;;;;;;;24.22;92.59;101432.59;5037250;28;20112;-60
2022/08/22 08:58:52;;;;;;;23.63;10.25;;;;;;;24.14;94.47;101432.94;5036019;28;20037;-61
2022/08/22 09:01:20;;;;;;;22.38;8.93;;;;;;;23.88;93.39;101428.66;5037878;28;20508;-62
2022/08/22 09:04:23;;;;;;;22.33;8.98;;;;;;;23.73;93.94;101430.16;5035705;28;20060;-65
2022/08/22 09:07:06;;;;;;;;;;;;;;;23.86;97.77;101428.72;5037639;28;20033;-62
2022/08/22 09:10:02;;;;;;;20.77;8.80;;;;;;;23.79;94.93;101424.50;5035109;28;19971;-65
2022/08/22 09:12:46;;;;;;;22.40;8.50;;;;;;;23.87;91.94;101425.09;5036686;28;20030;-64
2022/08/22 09:15:30;;;;;;;23.55;8.98;;;;;;;23.86;92.87;101426.03;5035639;28;20033;-63
2022/08/22 09:18:26;;;;;;;25.45;9.18;;;;;;;23.80;92.57;101420.84;5037832;28;20034;-67
2022/08/22 09:21:10;;;;;;;22.17;9.45;;;;;;;23.80;91.97;101427.13;5031964;28;20041;-65
2022/08/22 09:24:00;;;;;;;22.30;9.07;;;;;;;23.95;94.35;101414.81;5034316;28;20057;-66
2022/08/22 09:26:55;;;;;;;21.45;8.50;;;;;;;24.08;93.60;101417.88;5034345;28;20069;-62
2022/08/22 09:29:47;;;;;;;22.02;7.80;;;;;;;24.19;90.48;101421.00;5038658;28;20056;-64
2022/08/22 09:32:27;;;;;;;20.30;7.80;;;;;;;24.26;88.11;101418.00;5034354;28;20029;-61
2022/08/22 09:35:26;;;;;;;20.52;6.50;;;;;;;24.50;87.74;101421.47;5032854;28;20025;-61
2022/08/22 09:38:13;;;;;;;20.30;6.25;;;;;;;24.71;86.02;101415.09;5036613;28;20040;-61
2022/08/22 09:40:50;;;;;;;19.77;6.13;;;;;;;24.92;82.18;101415.06;5033152;28;20116;-61
2022/08/22 09:43:24;;;;;;;20.58;6.05;;;;;;;25.08;80.39;101417.00;5033768;28;20022;-60
2022/08/22 09:46:04;;;;;;;20.55;5.93;;;;;;;25.09;79.23;101424.19;5032935;28;20045;-60
2022/08/22 09:48:51;;;;;;;20.23;5.90;;;;;;;25.03;78.62;101419.94;5033398;28;20053;-60
2022/08/22 09:51:33;;;;;;;18.70;5.43;;;;;;;25.08;77.86;101422.44;5032556;28;20393;-61
2022/08/22 09:54:01;;;;;;;21.60;6.20;;;;;;;25.35;77.07;101415.75;5037346;28;20025;-61
2022/08/22 09:56:56;;;;;;;19.05;5.65;;;;;;;25.74;75.60;101416.53;5035202;28;20044;-61
2022/08/22 09:59:25;;;;;;;18.73;5.30;;;;;;;26.12;71.32;101410.16;5035496;28;20468;-61
2022/08/22 10:02:01;;;;;;;20.45;5.80;;;;;;;26.64;66.57;101414.63;5033880;28;20053;-60
2022/08/22 10:04:50;;;;;;;17.10;4.55;;;;;;;27.27;54.84;101409.28;5034556;28;20045;-69
2022/08/22 10:07:27;;;;;;;18.95;4.90;;;;;;;28.08;50.68;101410.97;5034217;28;20147;-69
2022/08/22 10:10:26;;;;;;;20.38;5.25;;;;;;;28.67;49.01;101404.66;5034350;28;20107;-69
2022/08/22 10:13:20;;;;;;;18.58;4.90;;;;;;;29.00;44.94;101403.47;5036161;28;20417;-69
2022/08/22 10:15:55;;;;;;;20.33;5.63;;;;;;;29.35;42.19;101393.03;5034360;28;20028;-69
2022/08/22 10:18:23;;;;;;;21.55;6.20;;;;;;;29.31;41.16;101398.78;5036208;28;20025;-69
2022/08/22 10:21:07;;;;;;;20.00;5.85;;;;;;;29.41;43.07;101383.56;5035002;28;20030;-69
2022/08/22 10:23:44;;;;;;;20.50;5.75;;;;;;;29.54;41.37;101389.06;5040318;28;20096;-69
2022/08/22 10:26:28;;;;;;;19.40;5.65;;;;;;;29.63;40.31;101393.03;5045320;28;20061;-69
2022/08/22 10:29:12;;;;;;;20.35;5.30;;;;;;;30.13;38.31;101386.00;5046220;28;20032;-69
2022/08/22 10:31:48;;;;;;;18.10;5.00;;;;;;;29.88;38.33;101381.34;5041006;28;20543;-69
2022/08/22 10:34:20;;;;;;;18.23;5.53;;;;;;;30.08;37.82;101383.56;5044390;28;20025;-69
2022/08/22 10:36:57;;;;;;;19.77;5.10;;;;;;;30.36;36.55;101381.63;5044881;28;20090;-69
2022/08/22 10:39:40;;;;;;;18.50;5.20;;;;;;;30.68;37.15;101386.63;5043079;28;20160;-69
2022/08/22 10:42:26;;;;;;;19.17;4.90;;;;;;;31.37;36.32;101383.44;5040599;28;20028;-69
2022/08/22 10:45:19;;;;;;;16.80;4.75;;;;;;;31.51;34.74;101381.53;5043153;28;20021;-69
2022/08/22 10:47:57;;;;;;;17.77;5.00;;;;;;;32.53;34.48;101379.97;5042911;28;20029;-70
2022/08/22 10:50:37;;;;;;;18.55;5.20;;;;;;;33.80;30.80;101370.47;5042786;28;20037;-69
2022/08/22 10:53:37;;;;;;;19.15;4.88;;;;;;;33.99;31.62;101375.22;5039825;28;20033;-69
2022/08/22 10:56:12;;;;;;;17.60;5.07;;;;;;;34.04;30.52;101375.66;5020654;28;20464;-70
2022/08/22 10:59:15;;;;;;;16.75;3.95;;;;;;;34.46;30.15;101368.44;5022510;28;20038;-69
2022/08/22 11:02:10;;;;;;;16.80;3.60;;;;;;;35.51;28.75;101365.28;4932441;29;20122;-67
2022/08/22 11:04:47;;;;;;;17.55;3.95;;;;;;;35.30;28.12;101362.69;4888444;29;20124;-67
2022/08/22 11:07:47;;;;;;;17.75;4.10;;;;;;;34.27;28.10;101366.47;4886314;29;20051;-68
2022/08/22 11:10:37;;;;;;;17.88;3.70;;;;;;;32.92;30.62;101372.28;4872478;29;20037;-67
2022/08/22 11:13:25;;;;;;;16.38;3.78;;;;;;;32.19;30.91;101369.00;4875017;29;20056;-67
2022/08/22 11:15:54;;;;;;;17.40;4.22;;;;;;;31.38;31.36;101359.72;4877877;29;20045;-68
2022/08/22 11:18:43;;;;;;;19.95;4.25;;;;;;;31.11;33.54;101358.09;4876997;29;20069;-67
2022/08/22 11:21:26;;;;;;;17.73;4.15;;;;;;;31.05;33.26;101353.09;4875582;29;20045;-67
2022/08/22 11:24:26;;;;;;;17.80;3.80;;;;;;;30.95;33.04;101351.00;4877384;29;20128;-67
2022/08/22 11:27:01;;;;;;;15.38;3.90;;;;;;;31.06;33.00;101352.09;4877709;29;20081;-67
2022/08/22 11:29:47;;;;;;;15.57;3.83;;;;;;;31.03;32.50;101355.06;4877852;29;20116;-67
2022/08/22 11:32:18;;;;;;;18.08;3.83;;;;;;;30.88;32.16;101360.63;4840549;29;20120;-68
2022/08/22 11:35:04;;;;;;;13.90;3.60;;;;;;;30.21;31.45;101353.59;4831015;29;20052;-68
2022/08/22 11:37:45;;;;;;;16.50;3.60;;;;;;;29.98;33.14;101354.34;4834947;29;20046;-68
2022/08/22 11:40:32;;;;;;;15.52;3.33;;;;;;;29.77;33.62;101349.38;4905687;29;20182;-68
2022/08/22 11:43:06;;;;;;;17.02;3.60;;;;;;;29.48;33.26;101344.06;4919431;29;20044;-68
2022/08/22 11:45:41;;;;;;;15.52;3.70;;;;;;;29.51;33.70;101341.13;4920401;29;20515;-68
2022/08/22 11:48:20;;;;;;;16.65;3.75;;;;;;;29.60;33.88;101338.78;4978099;28;20070;-67
2022/08/22 11:50:54;;;;;;;14.55;3.50;;;;;;;29.77;33.06;101335.75;4982751;28;20158;-67
2022/08/22 11:53:34;;;;;;;16.60;3.70;;;;;;;29.96;33.37;101345.41;4980459;28;20388;-67
2022/08/22 11:56:20;;;;;;;14.95;3.67;;;;;;;30.02;34.29;101343.13;4980210;28;20038;-68
2022/08/22 11:58:51;;;;;;;16.65;3.72;;;;;;;29.93;33.56;101340.16;4978986;28;20161;-65
2022/08/22 12:01:49;;;;;;;14.85;3.65;;;;;;;29.79;33.90;101333.78;4981510;28;20037;-67
2022/08/22 12:04:25;;;;;;;18.08;3.95;;;;;;;29.55;33.57;101336.38;4979134;28;20030;-67
2022/08/22 12:07:00;;;;;;;15.45;3.80;;;;;;;29.08;34.35;101333.13;4981484;28;20402;-67
2022/08/22 12:09:47;;;;;;;14.60;3.60;;;;;;;29.02;35.27;101338.94;5015703;28;20443;-67
2022/08/22 12:12:24;;;;;;;17.98;3.80;;;;;;;28.86;35.38;101344.50;5039008;28;20064;-68